createdAt,value
2018-07-15T00:00:04.086Z,101039.59
2018-07-15T00:02:33.749Z,101037.77
2018-07-15T00:05:03.474Z,101038.35
2018-07-15T00:07:33.146Z,101040.45
2018-07-15T00:10:02.811Z,101030.95
2018-07-15T00:12:32.422Z,101033.53
2018-07-15T00:15:02.114Z,101036.78
2018-07-15T00:17:31.805Z,101030.23
2018-07-15T00:20:01.534Z,101035.80
2018-07-15T00:22:31.238Z,101033.47
2018-07-15T00:25:00.887Z,101038.23
2018-07-15T00:27:30.641Z,101036.42
2018-07-15T00:30:00.285Z,101033.87
2018-07-15T00:32:29.922Z,101036.27
2018-07-15T00:34:59.587Z,101033.30
2018-07-15T00:37:29.250Z,101027.67
2018-07-15T00:39:58.877Z,101025.59
2018-07-15T00:42:28.554Z,101035.99
2018-07-15T00:44:58.261Z,101024.59
2018-07-15T00:47:27.887Z,101026.55
2018-07-15T00:49:57.826Z,101029.91
2018-07-15T00:52:27.494Z,101030.72
2018-07-15T00:54:57.103Z,101024.23
2018-07-15T00:57:26.774Z,101023.41
2018-07-15T00:59:56.740Z,101018.92
2018-07-15T01:02:26.383Z,101017.67
2018-07-15T01:04:56.015Z,101016.29
2018-07-15T01:07:25.762Z,101022.63
2018-07-15T01:09:55.383Z,101017.08
2018-07-15T01:12:25.050Z,101012.59
2018-07-15T01:14:54.761Z,101013.16
2018-07-15T01:17:24.427Z,101016.05
2018-07-15T01:19:54.105Z,101018.02
2018-07-15T01:22:23.799Z,101009.66
2018-07-15T01:24:53.578Z,101013.96
2018-07-15T01:27:23.226Z,101005.50
2018-07-15T01:29:52.961Z,101006.03
2018-07-15T01:32:22.629Z,101009.80
2018-07-15T01:34:52.260Z,101003.67
2018-07-15T01:37:21.923Z,101007.72
2018-07-15T01:39:51.566Z,101006.98
2018-07-15T01:42:21.182Z,101008.89
2018-07-15T01:44:50.898Z,101003.52
2018-07-15T01:47:20.533Z,101003.53
2018-07-15T01:49:50.233Z,101006.66
2018-07-15T01:52:19.966Z,101003.43
2018-07-15T01:54:49.586Z,101004.05
2018-07-15T01:57:19.301Z,101000.69
2018-07-15T01:59:48.941Z,101003.48
2018-07-15T02:02:18.567Z,101004.16
2018-07-15T02:04:48.215Z,101004.18
2018-07-15T02:07:17.937Z,101005.12
2018-07-15T02:09:47.606Z,101010.07
2018-07-15T02:12:17.317Z,101015.69
2018-07-15T02:14:46.967Z,101011.44
2018-07-15T02:17:16.648Z,101008.50
2018-07-15T02:19:46.333Z,101007.09
2018-07-15T02:22:16.001Z,101014.62
2018-07-15T02:24:45.710Z,101009.61
2018-07-15T02:27:15.402Z,101006.91
2018-07-15T02:29:45.083Z,101008.03
2018-07-15T02:32:14.768Z,101009.55
2018-07-15T02:34:44.592Z,101005.88
2018-07-15T02:37:14.239Z,101006.53
2018-07-15T02:39:44.160Z,101007.23
2018-07-15T02:42:13.898Z,101005.80
2018-07-15T02:44:43.576Z,101001.30
2018-07-15T02:47:13.575Z,101003.93
2018-07-15T02:49:43.192Z,101007.75
2018-07-15T02:52:12.890Z,101002.30
2018-07-15T02:54:42.660Z,101005.44
2018-07-15T02:57:12.313Z,101009.70
2018-07-15T02:59:41.919Z,101004.27
2018-07-15T03:02:11.602Z,101004.42
2018-07-15T03:04:41.282Z,101003.03
2018-07-15T03:07:11.238Z,100994.34
2018-07-15T03:09:40.863Z,100991.50
2018-07-15T03:12:10.633Z,100985.37
2018-07-15T03:14:40.313Z,100983.77
2018-07-15T03:17:10.022Z,100990.19
2018-07-15T03:19:39.621Z,100988.12
2018-07-15T03:22:09.608Z,101003.53
2018-07-15T03:24:39.261Z,100996.72
2018-07-15T03:27:09.039Z,100992.14
2018-07-15T03:29:38.643Z,100987.07
2018-07-15T03:32:08.402Z,100985.77
2018-07-15T03:34:38.218Z,100990.91
2018-07-15T03:37:07.918Z,100992.58
2018-07-15T03:39:37.606Z,100986.52
2018-07-15T03:42:07.430Z,100990.74
2018-07-15T03:44:37.126Z,100993.72
2018-07-15T03:47:06.863Z,100991.86
2018-07-15T03:52:33.704Z,100985.31
2018-07-15T03:55:03.481Z,100983.78
2018-07-15T03:57:33.116Z,100978.25
2018-07-15T04:00:02.774Z,100976.79
2018-07-15T04:02:32.497Z,100976.86
2018-07-15T04:05:02.162Z,100970.98
2018-07-15T04:07:31.869Z,100976.23
2018-07-15T04:10:01.546Z,100974.16
2018-07-15T04:12:31.274Z,100973.16
2018-07-15T04:15:00.963Z,100968.70
2018-07-15T04:17:30.637Z,100971.87
2018-07-15T04:20:00.347Z,100970.38
2018-07-15T04:22:30.014Z,100968.40
2018-07-15T04:24:59.692Z,100966.33
2018-07-15T04:27:29.357Z,100965.70
2018-07-15T04:29:59.072Z,100965.61
2018-07-15T04:32:28.709Z,100960.04
2018-07-15T04:34:58.369Z,100963.12
2018-07-15T04:37:28.032Z,100960.19
2018-07-15T04:39:58.125Z,100964.43
2018-07-15T04:42:27.887Z,100963.11
2018-07-15T04:44:57.558Z,100962.63
2018-07-15T04:47:27.226Z,100960.70
2018-07-15T04:49:56.933Z,100955.87
2018-07-15T04:52:26.590Z,100962.56
2018-07-15T04:54:56.301Z,100967.10
2018-07-15T04:57:25.943Z,100964.64
2018-07-15T04:59:55.954Z,100961.43
2018-07-15T05:02:25.607Z,100956.50
2018-07-15T05:04:55.312Z,100958.43
2018-07-15T05:07:24.934Z,100962.00
2018-07-15T05:09:54.606Z,100962.92
2018-07-15T05:12:24.417Z,100961.40
2018-07-15T05:14:54.150Z,100972.00
2018-07-15T05:17:23.844Z,100968.42
2018-07-15T05:19:54.497Z,100979.69
2018-07-15T05:22:24.149Z,100973.75
2018-07-15T05:24:53.881Z,100980.61
2018-07-15T05:27:23.530Z,100978.18
2018-07-15T05:29:53.261Z,100977.26
2018-07-15T05:32:22.890Z,100984.34
2018-07-15T05:34:52.637Z,100983.03
2018-07-15T05:37:22.302Z,100980.34
2018-07-15T05:39:52.013Z,100978.92
2018-07-15T05:42:21.774Z,100983.02
2018-07-15T05:44:51.430Z,100978.89
2018-07-15T05:47:21.142Z,100979.11
2018-07-15T05:49:50.839Z,100979.11
2018-07-15T05:52:20.454Z,100973.97
2018-07-15T05:54:50.133Z,100977.77
2018-07-15T05:57:19.768Z,100978.53
2018-07-15T05:59:49.434Z,100980.47
2018-07-15T06:02:19.098Z,100983.15
2018-07-15T06:04:48.728Z,100981.31
2018-07-15T06:07:18.385Z,100981.17
2018-07-15T06:09:48.051Z,100984.42
2018-07-15T06:12:17.706Z,100986.88
2018-07-15T06:14:47.401Z,100984.23
2018-07-15T06:17:17.080Z,100987.42
2018-07-15T06:19:46.731Z,100985.28
2018-07-15T06:22:45.849Z,100985.28
2018-07-15T06:25:15.526Z,100983.96
2018-07-15T06:27:45.222Z,100979.59
2018-07-15T06:30:14.969Z,100983.67
2018-07-15T06:32:44.709Z,100980.09
2018-07-15T06:35:14.478Z,100980.38
2018-07-15T06:37:44.214Z,100980.31
2018-07-15T06:40:13.974Z,100972.58
2018-07-15T06:42:43.645Z,100972.31
2018-07-15T06:45:13.366Z,100976.44
2018-07-15T06:47:43.069Z,100972.95
2018-07-15T06:50:12.754Z,100972.95
2018-07-15T06:52:42.438Z,100977.44
2018-07-15T06:55:12.121Z,100976.12
2018-07-15T06:57:41.755Z,100973.53
2018-07-15T07:00:11.412Z,100970.10
2018-07-15T07:02:41.072Z,100970.38
2018-07-15T07:05:10.762Z,100975.84
2018-07-15T07:07:40.547Z,100975.27
2018-07-15T07:10:10.272Z,100966.77
2018-07-15T07:12:39.947Z,100968.09
2018-07-15T07:15:09.666Z,100962.53
2018-07-15T07:17:39.314Z,100966.94
2018-07-15T07:20:09.029Z,100966.77
2018-07-15T07:22:38.644Z,100961.31
2018-07-15T07:25:08.322Z,100963.78
2018-07-15T07:27:38.011Z,100964.02
2018-07-15T07:30:07.743Z,100965.56
2018-07-15T07:32:37.598Z,100963.43
2018-07-15T07:35:07.625Z,100972.13
2018-07-15T07:37:37.520Z,100967.59
2018-07-15T07:40:07.201Z,100966.84
2018-07-15T07:42:36.843Z,100971.07
2018-07-15T07:45:06.532Z,100963.11
2018-07-15T07:47:36.176Z,100959.44
2018-07-15T07:50:06.206Z,100965.89
2018-07-15T07:52:35.849Z,100963.82
2018-07-15T07:55:05.547Z,100960.71
2018-07-15T07:57:35.220Z,100961.34
2018-07-15T08:00:04.987Z,100969.55
2018-07-15T08:02:34.679Z,100963.66
2018-07-15T08:05:04.382Z,100963.09
2018-07-15T08:07:34.043Z,100971.45
2018-07-15T08:10:03.804Z,100961.91
2018-07-15T08:12:33.548Z,100973.33
2018-07-15T08:15:03.241Z,100962.52
2018-07-15T08:17:32.883Z,100962.52
2018-07-15T08:20:02.546Z,100965.52
2018-07-15T08:22:32.172Z,100960.94
2018-07-15T08:25:02.861Z,100953.95
2018-07-15T08:27:32.945Z,100954.67
2018-07-15T08:30:19.165Z,100950.94
2018-07-15T08:32:49.138Z,100959.02
2018-07-15T08:35:18.751Z,100958.45
2018-07-15T08:37:48.369Z,100948.50
2018-07-15T08:40:17.941Z,100954.55
2018-07-15T08:42:47.561Z,100952.19
2018-07-15T08:45:17.203Z,100953.96
2018-07-15T08:47:46.807Z,100955.66
2018-07-15T08:50:16.413Z,100957.41
2018-07-15T08:52:46.051Z,100957.84
2018-07-15T08:55:15.650Z,100951.04
2018-07-15T08:57:45.334Z,100952.98
2018-07-15T09:00:15.026Z,100952.80
2018-07-15T09:02:44.718Z,100947.06
2018-07-15T09:05:14.321Z,100951.84
2018-07-15T09:07:43.979Z,100954.80
2018-07-15T09:10:13.662Z,100948.11
2018-07-15T09:12:43.297Z,100949.53
2018-07-15T09:15:12.918Z,100943.75
2018-07-15T09:17:42.674Z,100953.13
2018-07-15T09:20:12.298Z,100944.63
2018-07-15T09:22:42.514Z,100942.33
2018-07-15T09:25:12.181Z,100942.61
2018-07-15T09:27:42.214Z,100939.02
2018-07-15T09:30:12.216Z,100935.83
2018-07-15T09:32:49.155Z,100934.85
2018-07-15T09:35:19.268Z,100938.39
2018-07-15T09:37:49.045Z,100939.77
2018-07-15T09:40:18.802Z,100941.31
2018-07-15T09:42:48.471Z,100939.04
2018-07-15T09:45:18.667Z,100938.45
2018-07-15T09:47:48.430Z,100944.97
2018-07-15T09:50:18.147Z,100941.66
2018-07-15T09:52:47.909Z,100937.50
2018-07-15T09:55:17.797Z,100937.96
2018-07-15T09:57:48.597Z,100940.75
2018-07-15T10:00:23.289Z,100933.67
2018-07-15T10:02:52.909Z,100932.45
2018-07-15T10:05:22.579Z,100929.65
2018-07-15T10:07:52.222Z,100923.12
2018-07-15T10:10:22.054Z,100923.59
2018-07-15T10:12:51.709Z,100929.77
2018-07-15T10:15:21.329Z,100921.53
2018-07-15T10:17:50.945Z,100924.93
2018-07-15T10:20:20.585Z,100926.41
2018-07-15T10:22:50.250Z,100921.37
2018-07-15T10:25:19.879Z,100918.35
2018-07-15T10:27:49.619Z,100915.02
2018-07-15T10:30:19.265Z,100911.37
2018-07-15T10:32:48.913Z,100915.04
2018-07-15T10:35:18.513Z,100912.30
2018-07-15T10:37:48.255Z,100906.02
2018-07-15T10:40:17.913Z,100906.41
2018-07-15T10:42:47.610Z,100907.47
2018-07-15T10:45:17.300Z,100903.16
2018-07-15T10:47:47.012Z,100895.59
2018-07-15T10:50:16.615Z,100892.38
2018-07-15T10:52:46.394Z,100891.81
2018-07-15T10:55:15.929Z,100881.83
2018-07-15T10:57:45.580Z,100889.39
2018-07-15T11:00:15.302Z,100881.52
2018-07-15T11:02:45.094Z,100884.89
2018-07-15T11:05:14.733Z,100875.19
2018-07-15T11:07:45.617Z,100870.41
2018-07-15T11:10:15.295Z,100867.74
2018-07-15T11:12:45.007Z,100867.02
2018-07-15T11:15:15.685Z,100865.84
2018-07-15T11:17:46.337Z,100870.60
2018-07-15T11:20:17.054Z,100864.11
2018-07-15T11:22:46.699Z,100857.31
2018-07-15T11:25:23.680Z,100864.20
2018-07-15T11:27:53.376Z,100859.16
2018-07-15T11:30:23.066Z,100857.04
2018-07-15T11:32:53.069Z,100863.98
2018-07-15T11:35:22.791Z,100858.91
2018-07-15T11:37:52.413Z,100859.33
2018-07-15T11:40:22.137Z,100849.53
2018-07-15T11:42:51.738Z,100853.78
2018-07-15T11:45:21.379Z,100850.28
2018-07-15T11:47:51.145Z,100849.72
2018-07-15T11:50:20.783Z,100852.71
2018-07-15T11:52:51.433Z,100846.02
2018-07-15T11:55:21.097Z,100844.95
2018-07-15T11:57:50.703Z,100837.53
2018-07-15T12:00:20.376Z,100834.73
2018-07-15T12:02:50.024Z,100831.88
2018-07-15T12:05:23.258Z,100827.39
2018-07-15T12:07:52.902Z,100829.10
2018-07-15T12:10:22.526Z,100819.16
2018-07-15T12:12:52.165Z,100810.34
2018-07-15T12:15:21.806Z,100817.07
2018-07-15T12:17:51.440Z,100816.71
2018-07-15T12:20:21.156Z,100809.83
2018-07-15T12:22:50.729Z,100806.45
2018-07-15T12:25:20.382Z,100810.45
2018-07-15T12:27:50.114Z,100809.52
2018-07-15T12:30:19.758Z,100802.51
2018-07-15T12:32:50.426Z,100800.67
2018-07-15T12:35:20.059Z,100797.16
2018-07-15T12:37:49.726Z,100798.34
2018-07-15T12:40:19.346Z,100786.66
2018-07-15T12:42:48.998Z,100789.48
2018-07-15T12:45:18.642Z,100781.14
2018-07-15T12:47:52.349Z,100770.42
2018-07-15T12:50:22.222Z,100776.13
2018-07-15T12:52:52.358Z,100775.41
2018-07-15T12:55:22.050Z,100776.45
2018-07-15T12:57:51.711Z,100772.63
2018-07-15T13:00:21.494Z,100756.73
2018-07-15T13:02:51.142Z,100763.70
2018-07-15T13:05:20.806Z,100759.73
2018-07-15T13:07:50.438Z,100751.45
2018-07-15T13:10:20.138Z,100745.78
2018-07-15T13:12:49.801Z,100743.19
2018-07-15T13:15:19.693Z,100737.88
2018-07-15T13:17:49.343Z,100738.23
2018-07-15T13:20:19.342Z,100735.15
2018-07-15T13:22:49.005Z,100731.18
2018-07-15T13:25:18.693Z,100732.93
2018-07-15T13:27:48.394Z,100729.30
2018-07-15T13:30:18.047Z,100721.53
2018-07-15T13:32:47.725Z,100720.79
2018-07-15T13:35:17.342Z,100713.09
2018-07-15T13:37:50.286Z,100719.47
2018-07-15T13:40:19.930Z,100710.28
2018-07-15T13:42:54.630Z,100708.08
2018-07-15T13:45:24.278Z,100713.31
2018-07-15T13:47:53.992Z,100717.06
2018-07-15T13:50:23.646Z,100702.70
2018-07-15T13:52:53.631Z,100705.61
2018-07-15T13:55:23.366Z,100693.85
2018-07-15T13:57:53.078Z,100693.95
2018-07-15T14:00:22.756Z,100696.16
2018-07-15T14:02:52.391Z,100699.22
2018-07-15T14:05:22.060Z,100694.44
2018-07-15T14:07:51.749Z,100691.90
2018-07-15T14:10:21.401Z,100690.81
2018-07-15T14:12:51.160Z,100693.79
2018-07-15T14:15:20.974Z,100696.00
2018-07-15T14:17:50.737Z,100689.67
2018-07-15T14:20:20.354Z,100688.26
2018-07-15T14:22:51.771Z,100686.12
2018-07-15T14:25:23.993Z,100679.22
2018-07-15T14:27:53.641Z,100682.92
2018-07-15T14:30:23.348Z,100677.17
2018-07-15T14:32:52.969Z,100672.18
2018-07-15T14:35:22.714Z,100668.41
2018-07-15T14:37:52.531Z,100659.81
2018-07-15T14:40:22.160Z,100660.73
2018-07-15T14:42:51.802Z,100661.69
2018-07-15T14:45:21.411Z,100657.56
2018-07-15T14:47:51.078Z,100657.49
2018-07-15T14:50:20.706Z,100654.14
2018-07-15T14:52:50.402Z,100661.13
2018-07-15T14:55:20.109Z,100662.02
2018-07-15T14:57:49.762Z,100657.94
2018-07-15T15:00:19.449Z,100655.16
2018-07-15T15:02:49.102Z,100658.58
2018-07-15T15:05:18.754Z,100654.97
2018-07-15T15:07:48.373Z,100655.67
2018-07-15T15:10:18.010Z,100648.48
2018-07-15T15:12:47.613Z,100656.96
2018-07-15T15:15:17.253Z,100651.05
2018-07-15T15:17:46.858Z,100650.94
2018-07-15T15:20:16.483Z,100653.77
2018-07-15T15:22:46.119Z,100651.35
2018-07-15T15:25:15.763Z,100645.80
2018-07-15T15:27:46.697Z,100650.72
2018-07-15T15:30:18.369Z,100646.70
2018-07-15T15:32:48.047Z,100652.81
2018-07-15T15:35:17.695Z,100645.27
2018-07-15T15:37:47.349Z,100639.40
2018-07-15T15:40:17.662Z,100649.31
2018-07-15T15:42:47.334Z,100643.47
2018-07-15T15:45:16.957Z,100643.11
2018-07-15T15:47:46.605Z,100642.40
2018-07-15T15:50:18.459Z,100637.28
2018-07-15T15:52:48.246Z,100633.63
2018-07-15T15:55:17.903Z,100623.91
2018-07-15T15:57:47.587Z,100622.61
2018-07-15T16:00:17.224Z,100624.60
2018-07-15T16:02:46.860Z,100619.14
2018-07-15T16:05:16.498Z,100612.64
2018-07-15T16:07:46.151Z,100618.36
2018-07-15T16:10:15.806Z,100622.91
2018-07-15T16:12:45.505Z,100620.48
2018-07-15T16:15:15.162Z,100611.34
2018-07-15T16:17:44.846Z,100614.97
2018-07-15T16:20:14.454Z,100611.49
2018-07-15T16:22:44.258Z,100609.83
2018-07-15T16:25:14.177Z,100616.34
2018-07-15T16:27:43.963Z,100614.05
2018-07-15T16:30:13.667Z,100615.72
2018-07-15T16:32:43.302Z,100611.75
2018-07-15T16:35:12.942Z,100614.14
2018-07-15T16:37:42.593Z,100610.69
2018-07-15T16:40:12.288Z,100605.87
2018-07-15T16:42:41.913Z,100611.83
2018-07-15T16:45:11.571Z,100608.80
2018-07-15T16:47:43.278Z,100602.87
2018-07-15T16:50:12.925Z,100617.59
2018-07-15T16:52:42.554Z,100616.78
2018-07-15T16:55:12.190Z,100616.13
2018-07-15T16:57:41.862Z,100621.86
2018-07-15T17:00:11.590Z,100613.34
2018-07-15T17:02:41.265Z,100611.90
2018-07-15T17:05:10.886Z,100613.51
2018-07-15T17:07:40.572Z,100611.77
2018-07-15T17:10:10.235Z,100609.16
2018-07-15T17:12:39.898Z,100616.13
2018-07-15T17:15:09.541Z,100607.03
2018-07-15T17:17:39.228Z,100604.92
2018-07-15T17:20:08.937Z,100600.85
2018-07-15T17:22:38.525Z,100595.14
2018-07-15T17:25:08.205Z,100597.89
2018-07-15T17:27:37.856Z,100592.33
2018-07-15T17:30:07.534Z,100590.31
2018-07-15T17:32:37.131Z,100585.66
2018-07-15T17:35:06.854Z,100591.28
2018-07-15T17:37:37.455Z,100587.54
2018-07-15T17:40:07.184Z,100584.83
2018-07-15T17:42:36.786Z,100590.46
2018-07-15T17:45:06.527Z,100587.11
2018-07-15T17:47:36.166Z,100581.59
2018-07-15T17:50:05.881Z,100589.31
2018-07-15T17:52:36.559Z,100586.99
2018-07-15T17:55:06.335Z,100581.78
2018-07-15T17:57:36.089Z,100580.13
2018-07-15T18:00:05.814Z,100581.52
2018-07-15T18:02:35.472Z,100579.83
2018-07-15T18:05:05.213Z,100587.55
2018-07-15T18:07:34.834Z,100590.06
2018-07-15T18:10:04.467Z,100586.62
2018-07-15T18:12:34.117Z,100588.13
2018-07-15T18:15:03.882Z,100582.78
2018-07-15T18:17:33.513Z,100584.58
2018-07-15T18:20:03.178Z,100585.98
2018-07-15T18:22:32.814Z,100586.14
2018-07-15T18:25:02.443Z,100590.38
2018-07-15T18:27:32.099Z,100591.89
2018-07-15T18:30:01.754Z,100597.05
2018-07-15T18:32:31.402Z,100596.78
2018-07-15T18:35:01.055Z,100595.77
2018-07-15T18:37:30.694Z,100603.78
2018-07-15T18:40:00.370Z,100600.47
2018-07-15T18:42:30.034Z,100605.48
2018-07-15T18:45:00.802Z,100604.84
2018-07-15T18:47:30.395Z,100607.15
2018-07-15T18:50:00.055Z,100614.84
2018-07-15T18:52:30.043Z,100610.50
2018-07-15T18:55:00.759Z,100610.17
2018-07-15T18:57:31.502Z,100609.31
2018-07-15T19:00:01.160Z,100619.84
2018-07-15T19:02:31.899Z,100609.84
2018-07-15T19:05:01.537Z,100613.52
2018-07-15T19:07:31.199Z,100614.67
2018-07-15T19:10:01.922Z,100614.17
2018-07-15T19:12:31.756Z,100617.86
2018-07-15T19:15:01.400Z,100621.70
2018-07-15T19:17:31.013Z,100622.51
2018-07-15T19:20:00.765Z,100619.19
2018-07-15T19:22:30.442Z,100623.84
2018-07-15T19:25:00.597Z,100626.70
2018-07-15T19:27:30.586Z,100628.86
2018-07-15T19:30:00.223Z,100629.87
2018-07-15T19:32:29.863Z,100638.70
2018-07-15T19:34:59.539Z,100634.53
2018-07-15T19:37:29.198Z,100636.17
2018-07-15T19:39:58.953Z,100642.39
2018-07-15T19:42:28.603Z,100646.23
2018-07-15T19:44:58.320Z,100644.05
2018-07-15T19:47:27.971Z,100646.70
2018-07-15T19:49:57.590Z,100651.69
2018-07-15T19:52:27.341Z,100657.50
2018-07-15T19:54:57.062Z,100657.52
2018-07-15T19:57:26.690Z,100657.19
2018-07-15T19:59:56.301Z,100663.35
2018-07-15T20:02:26.049Z,100665.53
2018-07-15T20:04:56.604Z,100672.03
2018-07-15T20:07:26.289Z,100675.72
2018-07-15T20:09:56.007Z,100672.20
2018-07-15T20:12:25.682Z,100679.38
2018-07-15T20:14:55.391Z,100672.86
2018-07-15T20:17:25.126Z,100679.84
2018-07-15T20:19:55.514Z,100685.00
2018-07-15T20:22:25.082Z,100681.62
2018-07-15T20:24:54.958Z,100680.91
2018-07-15T20:27:24.625Z,100680.63
2018-07-15T20:29:54.262Z,100677.88
2018-07-15T20:32:23.901Z,100684.74
2018-07-15T20:34:53.570Z,100685.27
2018-07-15T20:37:23.205Z,100689.45
2018-07-15T20:39:52.841Z,100689.34
2018-07-15T20:42:22.523Z,100692.48
2018-07-15T20:44:52.206Z,100689.65
2018-07-15T20:47:21.901Z,100697.28
2018-07-15T20:49:51.606Z,100692.41
2018-07-15T20:52:22.367Z,100692.07
2018-07-15T20:54:53.114Z,100695.98
2018-07-15T20:57:23.071Z,100697.28
2018-07-15T20:59:52.908Z,100694.85
2018-07-15T21:02:22.730Z,100697.66
2018-07-15T21:04:52.597Z,100701.91
2018-07-15T21:07:22.614Z,100698.59
2018-07-15T21:09:52.513Z,100695.59
2018-07-15T21:12:22.199Z,100700.31
2018-07-15T21:14:51.901Z,100710.07
2018-07-15T21:17:21.519Z,100706.73
2018-07-15T21:19:51.151Z,100713.68
2018-07-15T21:22:20.777Z,100714.95
2018-07-15T21:24:50.421Z,100716.64
2018-07-15T21:27:20.042Z,100719.52
2018-07-15T21:29:49.706Z,100720.95
2018-07-15T21:32:19.358Z,100716.27
2018-07-15T21:34:48.991Z,100718.44
2018-07-15T21:37:18.741Z,100712.70
2018-07-15T21:39:48.602Z,100716.11
2018-07-15T21:42:18.306Z,100712.82
2018-07-15T21:44:47.969Z,100713.25
2018-07-15T21:47:18.042Z,100708.77
2018-07-15T21:49:47.681Z,100717.19
2018-07-15T21:52:17.526Z,100713.14
2018-07-15T21:54:47.183Z,100708.58
2018-07-15T21:57:17.288Z,100711.68
2018-07-15T21:59:47.210Z,100714.63
2018-07-15T22:02:18.863Z,100715.99
2018-07-15T22:04:48.663Z,100720.16
2018-07-15T22:07:40.340Z,100717.96
2018-07-15T22:10:21.901Z,100713.33
2018-07-15T22:12:51.609Z,100717.31
2018-07-15T22:15:21.540Z,100721.24
2018-07-15T22:17:51.165Z,100717.36
2018-07-15T22:20:21.902Z,100719.09
2018-07-15T22:22:51.557Z,100719.84
2018-07-15T22:25:21.224Z,100716.58
2018-07-15T22:27:50.885Z,100718.45
2018-07-15T22:30:20.549Z,100715.81
2018-07-15T22:32:50.499Z,100721.61
2018-07-15T22:35:20.097Z,100720.27
2018-07-15T22:37:49.783Z,100727.51
2018-07-15T22:40:19.434Z,100721.04
2018-07-15T22:42:49.133Z,100721.80
2018-07-15T22:45:18.827Z,100721.89
2018-07-15T22:47:48.579Z,100715.08
2018-07-15T22:50:18.233Z,100715.84
2018-07-15T22:52:47.850Z,100711.64
2018-07-15T22:55:17.499Z,100716.89
2018-07-15T22:57:48.137Z,100711.56
2018-07-15T23:00:17.805Z,100705.77
2018-07-15T23:02:48.659Z,100708.34
2018-07-15T23:05:51.893Z,100705.09
2018-07-15T23:08:22.154Z,100703.68
2018-07-15T23:10:51.886Z,100705.17
2018-07-15T23:13:21.660Z,100703.02
2018-07-15T23:15:51.567Z,100701.89
2018-07-15T23:18:21.437Z,100707.53
2018-07-15T23:20:51.717Z,100708.77
2018-07-15T23:23:21.369Z,100705.75
2018-07-15T23:25:51.025Z,100702.03
2018-07-15T23:28:20.634Z,100708.72
2018-07-15T23:30:50.251Z,100711.14
2018-07-15T23:33:19.910Z,100713.30
2018-07-15T23:35:49.558Z,100712.33
2018-07-15T23:38:19.196Z,100712.82
2018-07-15T23:40:48.845Z,100718.70
